Time;durP1;ratioP1;P1;durP2;ratioP2;P2;SDS_P1;SDS_P2;PMS_P1;PMS_P2;Temp;Humidity;BMP_temperature;BMP_pressure;BME280_temperature;BME280_humidity;BME280_pressure;Samples;Min_cycle;Max_cycle;Signal;HPM_P1;HPM_P2
2022/01/05 00:00:09;;;;;;;7.45;2.78;;;10.80;65.10;;;;;;6113010;23;20088;-93
2022/01/05 00:02:35;;;;;;;5.20;1.60;;;10.80;64.90;;;;;;6113061;23;20010;-93
2022/01/05 00:05:02;;;;;;;8.88;3.13;;;10.80;64.90;;;;;;6093410;23;20014;-92
2022/01/05 00:07:28;;;;;;;9.98;3.40;;;10.80;64.70;;;;;;6080853;23;20091;-90
2022/01/05 00:09:54;;;;;;;9.65;3.22;;;10.80;64.60;;;;;;6064900;23;20469;-91
2022/01/05 00:12:20;;;;;;;10.98;3.10;;;10.80;64.50;;;;;;6115306;23;20456;-93
2022/01/05 00:14:46;;;;;;;14.73;4.32;;;10.80;64.50;;;;;;6111063;23;20072;-92
2022/01/05 00:17:11;;;;;;;16.80;6.57;;;10.80;64.30;;;;;;6067829;23;20013;-93
2022/01/05 00:19:39;;;;;;;19.83;7.25;;;10.80;64.20;;;;;;6062747;23;20020;-93
2022/01/05 00:22:05;;;;;;;15.27;6.55;;;10.70;64.20;;;;;;6067931;23;20015;-92
2022/01/05 00:24:31;;;;;;;16.48;5.05;;;10.90;64.30;;;;;;6065547;23;20088;-92
2022/01/05 00:26:57;;;;;;;18.40;7.28;;;10.70;64.10;;;;;;6072019;23;20095;-93
2022/01/05 00:29:22;;;;;;;13.52;5.13;;;11.00;64.30;;;;;;6069979;23;20052;-92
2022/01/05 00:31:48;;;;;;;14.73;6.30;;;10.70;64.10;;;;;;6117321;23;20445;-94
2022/01/05 00:34:14;;;;;;;15.10;6.63;;;11.10;64.30;;;;;;6113955;23;20308;-92
2022/01/05 00:36:40;;;;;;;22.38;8.90;;;10.70;64.00;;;;;;6065587;23;20037;-93
2022/01/05 00:39:06;;;;;;;15.70;6.15;;;10.70;64.00;;;;;;6113763;23;20006;-93
2022/01/05 00:41:32;;;;;;;20.67;7.53;;;10.70;64.00;;;;;;6112131;23;20480;-92
2022/01/05 00:43:57;;;;;;;18.25;6.70;;;10.60;63.90;;;;;;6062918;23;20472;-93
2022/01/05 00:46:23;;;;;;;14.73;5.20;;;10.60;64.00;;;;;;6111235;23;20129;-92
2022/01/05 00:48:49;;;;;;;17.02;6.47;;;10.60;64.00;;;;;;6066534;23;20005;-93
2022/01/05 00:51:15;;;;;;;17.73;6.13;;;10.60;64.10;;;;;;6113081;23;20018;-91
2022/01/05 00:53:42;;;;;;;18.92;6.53;;;10.60;64.10;;;;;;6115512;23;20016;-94
2022/01/05 00:56:07;;;;;;;16.73;5.53;;;10.60;64.10;;;;;;6065327;23;20048;-89
2022/01/05 00:58:33;;;;;;;33.17;11.80;;;10.80;64.40;;;;;;6066308;23;20009;-91
2022/01/05 01:00:59;;;;;;;24.35;7.22;;;10.50;64.10;;;;;;6115144;23;20525;-93
2022/01/05 01:03:28;;;;;;;15.13;5.50;;;10.50;64.10;;;;;;6115062;23;20059;-93
2022/01/05 01:05:59;;;;;;;22.85;9.30;;;10.40;64.10;;;;;;6116508;23;20384;-93
2022/01/05 01:08:25;;;;;;;14.80;5.25;;;10.40;64.00;;;;;;6114344;23;20010;-94
2022/01/05 01:10:51;;;;;;;11.45;5.72;;;10.40;64.10;;;;;;6067131;23;20084;-90
2022/01/05 01:13:18;;;;;;;11.25;3.22;;;10.40;64.20;;;;;;6117702;23;20425;-92
2022/01/05 01:15:45;;;;;;;21.38;5.22;;;10.40;64.00;;;;;;6065476;23;20010;-93
2022/01/05 01:18:11;;;;;;;14.25;6.25;;;10.90;64.30;;;;;;6068016;23;20088;-92
2022/01/05 01:20:37;;;;;;;12.93;4.13;;;10.40;64.10;;;;;;6067466;23;20345;-92
2022/01/05 01:23:03;;;;;;;22.45;6.43;;;10.50;64.20;;;;;;6067591;23;20005;-92
2022/01/05 01:25:29;;;;;;;23.73;8.20;;;10.30;64.00;;;;;;6068445;23;20018;-92
2022/01/05 01:27:55;;;;;;;26.67;8.35;;;10.30;64.10;;;;;;6115935;23;20016;-93
2022/01/05 01:30:21;;;;;;;17.02;5.43;;;10.30;64.10;;;;;;6114707;23;20013;-92
2022/01/05 01:32:46;;;;;;;10.60;3.38;;;10.80;64.30;;;;;;6118176;23;20002;-90
2022/01/05 01:35:12;;;;;;;11.35;4.20;;;10.80;64.40;;;;;;6066891;23;20036;-93
2022/01/05 01:37:38;;;;;;;5.28;2.28;;;10.50;64.10;;;;;;6068594;23;20058;-93
2022/01/05 01:40:06;;;;;;;7.85;2.47;;;10.30;63.90;;;;;;6067254;23;20481;-90
2022/01/05 01:42:33;;;;;;;7.78;2.00;;;10.20;63.80;;;;;;6116895;23;20242;-92
2022/01/05 01:44:59;;;;;;;6.45;2.72;;;10.20;63.80;;;;;;6063217;23;20014;-92
2022/01/05 01:47:24;;;;;;;5.78;1.90;;;10.30;64.40;;;;;;6066824;23;20036;-92
2022/01/05 01:49:50;;;;;;;8.20;2.30;;;10.20;63.80;;;;;;6115135;23;20365;-92
2022/01/05 01:52:16;;;;;;;8.50;2.97;;;10.20;63.70;;;;;;6113876;23;20057;-93
2022/01/05 01:54:42;;;;;;;7.53;2.42;;;10.20;63.70;;;;;;6066954;23;20017;-92
2022/01/05 01:57:08;;;;;;;10.27;2.72;;;10.30;63.70;;;;;;6114279;23;20006;-92
2022/01/05 01:59:34;;;;;;;8.40;2.28;;;10.50;63.90;;;;;;6112136;23;20005;-92
2022/01/05 02:02:00;;;;;;;7.25;2.13;;;10.20;63.60;;;;;;6069589;23;20032;-93
2022/01/05 02:04:26;;;;;;;9.63;2.20;;;10.20;63.70;;;;;;6117595;23;20092;-91
2022/01/05 02:06:52;;;;;;;11.85;2.70;;;10.20;63.70;;;;;;6117250;23;20009;-90
2022/01/05 02:09:18;;;;;;;9.13;2.55;;;10.20;63.70;;;;;;6067227;23;20028;-93
2022/01/05 02:11:44;;;;;;;6.35;2.50;;;10.10;63.60;;;;;;6114625;23;20041;-92
2022/01/05 02:14:10;;;;;;;17.52;3.15;;;10.20;63.70;;;;;;6090143;23;20097;-92
2022/01/05 02:16:42;;;;;;;7.32;2.33;;;10.50;63.80;;;;;;6065073;23;20076;-92
2022/01/05 02:19:09;;;;;;;5.18;2.00;;;10.20;63.50;;;;;;6069474;23;20572;-93
2022/01/05 02:21:39;;;;;;;5.47;1.88;;;10.10;63.40;;;;;;6115515;23;20452;-92
2022/01/05 02:24:07;;;;;;;10.90;2.30;;;10.20;63.30;;;;;;6115355;23;20044;-93
2022/01/05 02:26:33;;;;;;;10.93;1.80;;;10.20;63.30;;;;;;6117538;23;20009;-91
2022/01/05 02:28:59;;;;;;;6.63;1.67;;;10.70;63.60;;;;;;6069166;23;20100;-90
2022/01/05 02:31:25;;;;;;;4.63;1.63;;;10.60;63.50;;;;;;6070744;23;20345;-93
2022/01/05 02:33:51;;;;;;;7.13;2.00;;;10.10;63.20;;;;;;6066381;23;20029;-92
2022/01/05 02:36:20;;;;;;;4.85;1.35;;;10.10;63.20;;;;;;6115444;23;20081;-92
2022/01/05 02:38:52;;;;;;;3.63;1.17;;;10.10;63.20;;;;;;6116417;23;20105;-92
2022/01/05 02:41:18;;;;;;;9.98;1.88;;;10.10;63.00;;;;;;6065037;23;20069;-93
2022/01/05 02:43:46;;;;;;;3.30;0.98;;;10.10;63.20;;;;;;6066667;23;20277;-91
2022/01/05 02:46:19;;;;;;;4.28;1.20;;;10.10;63.10;;;;;;6066188;23;20013;-93
2022/01/05 02:48:49;;;;;;;3.65;1.20;;;10.10;63.10;;;;;;6115920;23;20026;-93
2022/01/05 02:51:15;;;;;;;4.70;1.15;;;10.50;63.40;;;;;;6066104;23;20016;-92
2022/01/05 02:53:41;;;;;;;3.50;1.50;;;10.00;63.20;;;;;;6085125;23;20073;-92
2022/01/05 02:56:07;;;;;;;7.78;1.63;;;10.00;63.20;;;;;;6109432;23;20451;-92
2022/01/05 02:58:33;;;;;;;7.45;1.58;;;10.40;63.40;;;;;;6109763;23;20362;-92
2022/01/05 03:00:59;;;;;;;6.93;1.13;;;10.00;63.00;;;;;;6088735;23;20038;-92
2022/01/05 03:03:25;;;;;;;4.78;1.65;;;10.00;63.00;;;;;;6032247;23;20018;-90
2022/01/05 03:05:50;;;;;;;6.38;1.42;;;10.00;63.00;;;;;;6032049;23;20022;-92
2022/01/05 03:08:16;;;;;;;4.82;1.30;;;10.00;62.90;;;;;;6056757;23;20117;-92
2022/01/05 03:10:42;;;;;;;7.82;1.58;;;10.50;63.20;;;;;;6054847;23;20014;-92
2022/01/05 03:13:08;;;;;;;4.20;1.50;;;10.00;62.90;;;;;;6032848;23;20020;-91
2022/01/05 03:15:37;;;;;;;3.58;1.48;;;10.00;62.90;;;;;;6033075;23;20536;-92
2022/01/05 03:18:05;;;;;;;4.72;1.35;;;10.00;62.80;;;;;;6033864;23;20003;-92
2022/01/05 03:20:32;;;;;;;8.50;1.67;;;10.00;62.80;;;;;;6056390;23;20018;-92
2022/01/05 03:22:58;;;;;;;5.22;2.00;;;10.10;62.90;;;;;;6033863;23;20032;-90
2022/01/05 03:25:25;;;;;;;8.80;2.95;;;10.50;63.10;;;;;;6031997;23;20015;-92
2022/01/05 03:27:53;;;;;;;4.82;1.83;;;10.00;62.90;;;;;;6056472;23;20058;-92
2022/01/05 03:30:26;;;;;;;7.00;2.00;;;10.00;62.80;;;;;;6032029;23;20014;-92
2022/01/05 03:33:08;;;;;;;5.93;1.75;;;10.10;62.90;;;;;;6056968;23;20037;-92
2022/01/05 03:35:39;;;;;;;4.95;1.30;;;9.90;62.80;;;;;;6038851;23;20010;-92
2022/01/05 03:38:05;;;;;;;5.10;1.63;;;9.90;62.80;;;;;;6034616;23;20006;-92
2022/01/05 03:40:32;;;;;;;8.30;1.60;;;9.90;62.80;;;;;;6031505;23;20018;-94
2022/01/05 03:42:58;;;;;;;15.27;6.22;;;10.10;63.00;;;;;;6033489;23;20006;-92
2022/01/05 03:45:24;;;;;;;12.60;2.55;;;9.90;63.00;;;;;;6031618;23;20013;-95
2022/01/05 03:47:50;;;;;;;15.93;6.72;;;10.40;63.10;;;;;;6031364;23;20394;-95
2022/01/05 03:50:15;;;;;;;25.27;11.25;;;9.90;62.80;;;;;;6031065;23;20007;-94
2022/01/05 03:52:41;;;;;;;22.42;8.50;;;9.90;62.90;;;;;;6032497;23;20052;-95
2022/01/05 03:55:08;;;;;;;11.35;3.63;;;10.00;62.90;;;;;;6054735;23;20017;-92
2022/01/05 03:57:33;;;;;;;13.13;5.28;;;9.90;62.80;;;;;;6032666;23;20581;-92
2022/01/05 03:59:59;;;;;;;14.95;4.00;;;10.10;63.00;;;;;;6030341;23;20415;-91
2022/01/05 04:02:26;;;;;;;9.73;2.38;;;9.90;62.90;;;;;;6033842;23;20089;-92
2022/01/05 04:04:52;;;;;;;11.63;4.63;;;9.80;63.30;;;;;;6055044;23;20437;-91
2022/01/05 04:07:18;;;;;;;5.25;1.75;;;10.10;62.90;;;;;;6032103;23;20313;-92
2022/01/05 04:09:45;;;;;;;7.72;2.75;;;9.80;62.80;;;;;;6053683;23;20461;-92
2022/01/05 04:12:11;;;;;;;11.38;5.57;;;9.80;62.80;;;;;;6033445;23;20002;-90
2022/01/05 04:14:37;;;;;;;7.45;2.17;;;9.80;62.80;;;;;;6032743;23;20081;-91
2022/01/05 04:17:04;;;;;;;6.30;2.05;;;9.80;62.80;;;;;;6055178;23;20018;-91
2022/01/05 04:19:31;;;;;;;7.45;2.92;;;9.80;62.80;;;;;;6056408;23;20923;-92
2022/01/05 04:21:57;;;;;;;11.70;3.05;;;9.80;62.80;;;;;;6031841;23;20025;-92
2022/01/05 04:24:23;;;;;;;9.85;1.95;;;9.70;63.30;;;;;;6057295;23;20006;-91
2022/01/05 04:26:49;;;;;;;9.18;2.30;;;9.70;62.80;;;;;;6055133;23;20050;-92
2022/01/05 04:29:15;;;;;;;8.23;1.50;;;9.70;62.90;;;;;;6056694;23;20015;-92
2022/01/05 04:31:40;;;;;;;7.68;2.88;;;9.70;62.90;;;;;;6061889;23;20025;-91
2022/01/05 04:34:06;;;;;;;10.63;3.60;;;9.70;63.00;;;;;;6043570;23;20007;-91
2022/01/05 04:36:32;;;;;;;14.15;3.92;;;9.70;63.00;;;;;;6053820;23;20070;-92
2022/01/05 04:38:58;;;;;;;8.27;3.45;;;9.70;63.10;;;;;;6033377;23;20465;-91
2022/01/05 04:41:24;;;;;;;7.35;3.15;;;9.70;63.10;;;;;;6054509;23;20027;-92
2022/01/05 04:43:50;;;;;;;5.05;2.30;;;10.10;63.40;;;;;;6031766;23;20472;-92
2022/01/05 04:46:15;;;;;;;8.85;2.92;;;9.70;63.20;;;;;;6054090;23;20022;-93
2022/01/05 04:48:42;;;;;;;6.43;2.75;;;9.70;63.20;;;;;;6055142;23;20394;-90
2022/01/05 04:51:08;;;;;;;12.20;4.28;;;9.80;63.40;;;;;;6055963;23;20019;-93
2022/01/05 04:53:34;;;;;;;14.23;5.00;;;9.70;63.20;;;;;;6035993;23;20443;-92
2022/01/05 04:56:00;;;;;;;6.25;3.30;;;9.70;63.30;;;;;;6067773;23;20006;-92
2022/01/05 04:58:26;;;;;;;8.05;2.47;;;9.60;63.30;;;;;;6134362;23;20053;-92
2022/01/05 05:00:52;;;;;;;7.57;3.53;;;9.60;63.30;;;;;;6083780;23;20014;-92
2022/01/05 05:03:18;;;;;;;7.03;2.75;;;10.10;63.70;;;;;;6085077;23;20330;-92
2022/01/05 05:05:44;;;;;;;9.88;2.80;;;10.10;64.20;;;;;;6084148;23;20331;-92
2022/01/05 05:08:09;;;;;;;7.20;3.95;;;9.60;63.30;;;;;;6085765;23;20010;-92
2022/01/05 05:10:35;;;;;;;6.13;2.50;;;10.00;63.60;;;;;;6087874;23;20033;-92
2022/01/05 05:13:09;;;;;;;5.35;1.20;;;9.60;63.30;;;;;;6085281;23;20002;-92
2022/01/05 05:15:36;;;;;;;5.38;1.58;;;9.60;63.10;;;;;;6081260;23;20026;-93
2022/01/05 05:18:02;;;;;;;6.38;1.65;;;10.10;63.50;;;;;;6085529;23;20002;-93
2022/01/05 05:20:28;;;;;;;4.63;1.80;;;9.60;63.40;;;;;;6082505;23;20010;-91
2022/01/05 05:22:54;;;;;;;8.57;1.80;;;9.70;63.30;;;;;;6060690;23;20005;-90
2022/01/05 05:25:20;;;;;;;9.48;2.92;;;9.60;63.80;;;;;;6085560;23;20029;-92
2022/01/05 05:27:45;;;;;;;6.53;1.40;;;9.70;63.20;;;;;;6059979;23;20050;-92
2022/01/05 05:30:11;;;;;;;6.32;2.22;;;9.70;63.20;;;;;;6081951;23;20021;-91
2022/01/05 05:32:37;;;;;;;11.15;3.35;;;9.60;63.10;;;;;;6084035;23;20006;-89
2022/01/05 05:35:05;;;;;;;9.48;2.03;;;9.60;63.10;;;;;;6061573;23;20461;-92
2022/01/05 05:37:31;;;;;;;8.18;1.98;;;9.60;63.00;;;;;;6083759;23;20013;-92
2022/01/05 05:39:57;;;;;;;6.88;1.92;;;9.60;63.00;;;;;;6083706;23;20018;-92
2022/01/05 05:42:23;;;;;;;13.18;3.40;;;9.50;62.90;;;;;;6085792;23;20037;-91
2022/01/05 05:44:49;;;;;;;5.90;2.35;;;10.10;63.40;;;;;;6086190;23;20017;-92
2022/01/05 05:47:14;;;;;;;6.93;2.08;;;9.50;63.00;;;;;;6084824;23;20017;-92
2022/01/05 05:49:40;;;;;;;10.68;3.30;;;10.00;63.40;;;;;;6060917;23;20013;-92
2022/01/05 05:52:06;;;;;;;9.82;2.67;;;9.50;63.10;;;;;;6084949;23;20029;-90
2022/01/05 05:54:32;;;;;;;10.43;3.05;;;9.50;63.00;;;;;;6062527;23;20032;-90
2022/01/05 05:56:58;;;;;;;6.18;1.40;;;9.40;63.00;;;;;;6061342;23;20465;-92
2022/01/05 05:59:23;;;;;;;9.18;2.88;;;9.50;63.10;;;;;;6061124;23;20453;-91
2022/01/05 06:01:49;;;;;;;5.35;1.65;;;9.40;63.10;;;;;;6060668;23;20446;-91
2022/01/05 06:04:15;;;;;;;3.42;2.17;;;9.90;63.40;;;;;;6063650;23;20017;-92
2022/01/05 06:06:41;;;;;;;8.88;2.40;;;9.40;63.10;;;;;;6061394;23;20017;-92
2022/01/05 06:09:06;;;;;;;10.02;1.75;;;9.40;63.20;;;;;;6061808;23;20005;-94
2022/01/05 06:11:32;;;;;;;4.30;2.25;;;9.90;63.50;;;;;;6085313;23;20022;-92
2022/01/05 06:13:58;;;;;;;7.10;2.72;;;9.40;63.40;;;;;;6086876;23;20037;-94
2022/01/05 06:16:24;;;;;;;9.43;5.30;;;9.80;64.10;;;;;;6084599;23;20014;-94
2022/01/05 06:18:50;;;;;;;8.38;3.50;;;9.40;63.30;;;;;;6061117;23;20006;-95
2022/01/05 06:21:15;;;;;;;5.75;2.30;;;9.70;63.50;;;;;;6085983;23;20369;-94
2022/01/05 06:23:41;;;;;;;7.45;2.17;;;9.30;63.30;;;;;;6085005;23;20010;-95
2022/01/05 06:26:07;;;;;;;7.55;2.00;;;9.50;63.40;;;;;;6058361;23;20025;-94
2022/01/05 06:28:32;;;;;;;8.48;2.10;;;9.30;63.30;;;;;;6086578;23;20014;-93
2022/01/05 06:30:58;;;;;;;4.57;1.50;;;9.30;63.30;;;;;;6059964;23;20536;-94
2022/01/05 06:33:24;;;;;;;5.25;1.05;;;9.60;63.40;;;;;;6085300;23;20571;-94
2022/01/05 06:35:50;;;;;;;9.07;1.63;;;9.30;63.30;;;;;;6085067;23;20044;-91
2022/01/05 06:38:15;;;;;;;5.32;1.77;;;9.30;63.30;;;;;;6084794;23;20010;-94
2022/01/05 06:40:41;;;;;;;7.38;1.63;;;9.30;63.30;;;;;;6060595;23;20552;-94
2022/01/05 06:43:07;;;;;;;6.00;2.60;;;9.30;63.30;;;;;;6060781;23;20430;-92
2022/01/05 06:45:34;;;;;;;10.32;4.18;;;9.30;63.30;;;;;;6061539;23;20018;-94
2022/01/05 06:48:00;;;;;;;8.82;2.60;;;9.50;63.40;;;;;;6086136;23;20053;-95
2022/01/05 06:50:27;;;;;;;8.52;3.08;;;9.70;63.60;;;;;;6061319;23;20370;-95
2022/01/05 06:52:55;;;;;;;3.38;1.02;;;9.30;63.30;;;;;;6082193;23;20017;-93
2022/01/05 06:55:22;;;;;;;6.55;1.83;;;9.30;63.40;;;;;;6061552;23;20002;-95
2022/01/05 06:57:48;;;;;;;6.03;2.03;;;9.80;63.70;;;;;;6085172;23;20002;-94
2022/01/05 07:00:14;;;;;;;6.43;1.20;;;9.20;63.40;;;;;;6059900;23;20013;-93
2022/01/05 07:02:40;;;;;;;8.32;1.25;;;9.30;63.40;;;;;;6061194;23;20014;-94
2022/01/05 07:05:07;;;;;;;5.32;1.27;;;9.20;63.40;;;;;;6063687;23;20014;-94
2022/01/05 07:07:33;;;;;;;8.10;2.45;;;9.20;63.40;;;;;;6061263;23;20021;-96
2022/01/05 07:09:59;;;;;;;6.30;2.00;;;9.60;63.70;;;;;;6063966;23;20434;-93
2022/01/05 07:12:24;;;;;;;2.90;1.38;;;9.20;64.00;;;;;;6060733;23;20014;-96
2022/01/05 07:14:50;;;;;;;8.95;2.10;;;9.20;63.50;;;;;;6086006;23;20006;-96
2022/01/05 07:17:16;;;;;;;3.28;1.13;;;9.20;63.60;;;;;;6084249;23;20393;-95
2022/01/05 07:19:42;;;;;;;4.82;1.23;;;9.20;63.50;;;;;;6060988;23;20688;-95
2022/01/05 07:22:07;;;;;;;2.80;1.20;;;9.20;63.60;;;;;;6068567;23;20006;-95
2022/01/05 07:24:33;;;;;;;5.68;1.48;;;9.40;63.70;;;;;;6061083;23;20006;-93
2022/01/05 07:26:59;;;;;;;5.28;1.80;;;9.20;63.70;;;;;;6062253;23;20021;-95
2022/01/05 07:29:25;;;;;;;9.68;2.03;;;9.20;63.70;;;;;;6060476;23;20063;-94
2022/01/05 07:31:50;;;;;;;5.63;1.67;;;9.60;64.50;;;;;;6083953;23;20021;-95
2022/01/05 07:34:16;;;;;;;3.58;1.58;;;9.20;63.60;;;;;;6084660;23;20002;-92
2022/01/05 07:36:42;;;;;;;7.90;2.08;;;9.20;63.60;;;;;;6060990;23;20020;-93
2022/01/05 07:39:08;;;;;;;16.98;6.20;;;9.10;63.60;;;;;;6084393;23;20010;-93
2022/01/05 07:41:36;;;;;;;12.95;6.28;;;9.10;63.60;;;;;;6083813;23;20354;-93
2022/01/05 07:44:04;;;;;;;27.02;9.88;;;9.40;63.80;;;;;;6060483;23;20384;-94
2022/01/05 07:46:30;;;;;;;20.10;8.63;;;9.10;63.70;;;;;;6060051;23;20033;-93
2022/01/05 07:48:56;;;;;;;19.58;7.43;;;9.10;63.80;;;;;;6086535;23;20006;-93
2022/01/05 07:51:22;;;;;;;15.45;5.40;;;9.10;63.90;;;;;;6060208;23;20465;-92
2022/01/05 07:53:47;;;;;;;9.95;3.35;;;9.10;63.90;;;;;;6060072;23;20090;-94
2022/01/05 07:56:13;;;;;;;13.75;4.38;;;9.70;64.20;;;;;;6059954;23;20398;-91
2022/01/05 07:58:40;;;;;;;24.77;7.88;;;9.00;63.90;;;;;;6062229;23;20034;-93
2022/01/05 08:01:06;;;;;;;28.45;10.23;;;9.10;63.90;;;;;;6059226;23;20097;-93
2022/01/05 08:03:37;;;;;;;17.08;6.10;;;9.20;64.00;;;;;;6083819;23;20013;-93
2022/01/05 08:06:04;;;;;;;16.77;6.85;;;9.10;64.00;;;;;;6061400;23;20014;-94
2022/01/05 08:08:31;;;;;;;20.90;8.02;;;9.10;63.90;;;;;;6083445;23;20057;-91
2022/01/05 08:10:56;;;;;;;32.20;11.82;;;9.50;64.20;;;;;;6062667;23;20025;-94
2022/01/05 08:13:25;;;;;;;29.00;11.90;;;9.50;64.20;;;;;;6058584;23;20001;-92
2022/01/05 08:15:52;;;;;;;16.58;5.47;;;9.00;64.00;;;;;;6081740;23;20598;-92
2022/01/05 08:18:18;;;;;;;31.77;12.32;;;9.10;64.10;;;;;;6059172;23;20032;-93
2022/01/05 08:20:45;;;;;;;19.95;8.38;;;9.00;64.00;;;;;;6058952;23;20017;-91
2022/01/05 08:23:19;;;;;;;16.35;6.65;;;9.00;64.10;;;;;;6061343;23;20060;-93
2022/01/05 08:25:45;;;;;;;9.98;3.90;;;9.00;64.20;;;;;;6084700;23;20006;-94
2022/01/05 08:28:11;;;;;;;9.52;2.60;;;9.00;64.20;;;;;;6060465;23;20006;-93
2022/01/05 08:30:38;;;;;;;7.55;2.45;;;9.00;64.80;;;;;;6059783;23;20985;-94
2022/01/05 08:33:06;;;;;;;20.50;7.68;;;9.00;64.20;;;;;;6084242;23;20010;-93
2022/01/05 08:35:34;;;;;;;8.00;3.38;;;9.00;64.30;;;;;;6085736;23;20041;-93
2022/01/05 08:38:01;;;;;;;23.45;10.15;;;9.00;64.30;;;;;;6078624;23;20049;-94
2022/01/05 08:40:27;;;;;;;17.80;8.07;;;9.00;64.30;;;;;;6060883;23;20017;-94
2022/01/05 08:42:55;;;;;;;13.35;5.25;;;9.00;64.30;;;;;;6057911;23;20014;-93
2022/01/05 08:45:23;;;;;;;44.05;17.10;;;9.10;64.40;;;;;;6059758;23;20006;-92
2022/01/05 08:47:51;;;;;;;16.85;8.18;;;9.00;64.40;;;;;;6083872;23;20021;-92
2022/01/05 08:50:23;;;;;;;11.20;5.05;;;9.00;64.40;;;;;;6085989;23;20010;-94
2022/01/05 08:52:49;;;;;;;21.42;10.02;;;9.00;64.50;;;;;;6085966;23;20093;-92
2022/01/05 08:55:17;;;;;;;15.73;7.22;;;9.30;64.80;;;;;;6061489;23;20484;-93
2022/01/05 08:57:44;;;;;;;35.90;15.80;;;9.00;64.60;;;;;;6061086;23;20030;-93
2022/01/05 09:00:12;;;;;;;13.18;4.25;;;9.00;64.60;;;;;;6059418;23;20016;-93
2022/01/05 09:02:38;;;;;;;9.02;3.28;;;9.00;64.60;;;;;;6057557;23;20090;-93
2022/01/05 09:05:05;;;;;;;178.63;65.43;;;9.00;64.80;;;;;;6083703;23;20010;-93
2022/01/05 09:07:31;;;;;;;30.80;12.45;;;9.00;64.80;;;;;;6061864;23;20017;-93
2022/01/05 09:09:57;;;;;;;7.38;2.92;;;9.00;65.10;;;;;;6061703;23;20014;-94
2022/01/05 09:12:23;;;;;;;10.48;2.70;;;8.90;64.90;;;;;;6061551;23;20224;-93
2022/01/05 09:14:49;;;;;;;9.00;2.90;;;9.30;65.30;;;;;;6087235;23;20009;-92
2022/01/05 09:17:15;;;;;;;13.85;6.15;;;9.00;65.20;;;;;;6086945;23;20093;-93
2022/01/05 09:19:42;;;;;;;12.77;5.22;;;9.00;65.20;;;;;;6062744;23;20382;-93
2022/01/05 09:22:09;;;;;;;17.35;4.75;;;9.20;65.30;;;;;;6061476;23;20018;-92
2022/01/05 09:24:36;;;;;;;11.05;3.25;;;9.10;65.30;;;;;;6062948;23;20437;-92
2022/01/05 09:27:04;;;;;;;15.63;6.85;;;9.00;65.30;;;;;;6063472;23;20141;-93
2022/01/05 09:29:31;;;;;;;16.75;6.60;;;9.00;65.30;;;;;;6087328;23;20042;-93
2022/01/05 09:32:03;;;;;;;16.77;7.00;;;9.20;65.50;;;;;;6062044;23;20014;-93
2022/01/05 09:34:32;;;;;;;14.90;5.40;;;9.40;65.60;;;;;;6089870;23;20344;-91
2022/01/05 09:37:04;;;;;;;12.00;4.18;;;9.00;65.40;;;;;;6063309;23;20033;-91
2022/01/05 09:42:15;;;;;;;6.78;2.17;;;9.00;65.50;;;;;;6090370;23;20044;-91
2022/01/05 09:44:48;;;;;;;16.02;6.47;;;9.00;65.60;;;;;;6061806;23;20006;-91
2022/01/05 09:47:59;;;;;;;11.68;2.25;;;9.00;65.60;;;;;;6063181;23;20024;-91
2022/01/05 09:50:26;;;;;;;8.32;3.58;;;9.10;65.70;;;;;;6134837;23;20014;-92
2022/01/05 09:52:52;;;;;;;8.40;3.85;;;9.40;65.90;;;;;;6061699;23;20022;-90
2022/01/05 09:55:18;;;;;;;11.13;4.40;;;9.10;65.80;;;;;;6062979;23;20018;-91
2022/01/05 09:57:46;;;;;;;10.25;4.25;;;9.10;65.90;;;;;;6062421;23;20152;-90
2022/01/05 10:00:15;;;;;;;8.70;3.40;;;9.10;65.90;;;;;;6062025;23;20010;-90
2022/01/05 10:02:42;;;;;;;7.93;2.45;;;9.10;66.00;;;;;;6086568;23;20025;-91
2022/01/05 10:05:10;;;;;;;10.50;2.05;;;9.10;66.60;;;;;;6064047;23;20006;-91
2022/01/05 10:07:36;;;;;;;13.27;6.03;;;9.60;66.40;;;;;;6063512;23;20465;-91
2022/01/05 10:10:03;;;;;;;8.43;3.47;;;9.60;66.40;;;;;;6086531;23;20077;-91
2022/01/05 10:12:28;;;;;;;6.13;2.45;;;9.20;66.20;;;;;;6063430;23;20033;-91
2022/01/05 10:14:54;;;;;;;5.63;2.03;;;9.20;66.30;;;;;;6061197;23;20096;-90
2022/01/05 10:17:29;;;;;;;5.43;1.42;;;9.20;66.30;;;;;;6062909;23;20516;-90
2022/01/05 10:19:59;;;;;;;;;;;9.40;66.50;;;;;;6062689;23;20021;-90
2022/01/05 10:22:37;;;;;;;6.07;1.92;;;9.80;66.70;;;;;;6086405;23;19916;-91
2022/01/05 10:25:21;;;;;;;5.57;1.40;;;9.20;66.30;;;;;;6065167;23;20010;-91
2022/01/05 10:27:59;;;;;;;6.97;1.67;;;9.30;66.50;;;;;;6086407;23;20041;-91
2022/01/05 10:30:41;;;;;;;8.55;2.00;;;9.20;66.40;;;;;;6084165;23;20014;-91
2022/01/05 10:33:07;;;;;;;8.93;1.73;;;9.20;66.40;;;;;;6087939;23;20014;-90
2022/01/05 10:35:34;;;;;;;7.70;1.60;;;9.30;66.60;;;;;;6064762;23;20492;-90
2022/01/05 10:38:08;;;;;;;8.10;2.70;;;9.30;66.60;;;;;;6061875;23;20069;-92
2022/01/05 10:40:38;;;;;;;7.38;1.95;;;9.20;66.50;;;;;;6086578;23;20009;-91
2022/01/05 10:43:13;;;;;;;6.05;2.13;;;9.20;66.60;;;;;;6061868;23;20476;-89
2022/01/05 10:45:49;;;;;;;6.00;1.83;;;9.70;66.90;;;;;;6085820;23;20006;-91
2022/01/05 10:48:18;;;;;;;5.03;2.58;;;9.30;66.70;;;;;;6087609;23;20576;-91
2022/01/05 10:50:47;;;;;;;4.07;1.70;;;9.50;66.80;;;;;;6087657;23;20005;-93
2022/01/05 10:53:16;;;;;;;6.18;1.15;;;9.30;66.70;;;;;;6061622;23;20030;-92
2022/01/05 10:55:45;;;;;;;9.05;2.85;;;9.70;67.00;;;;;;6063646;23;20020;-93
2022/01/05 10:58:16;;;;;;;9.95;2.45;;;9.40;66.80;;;;;;6085200;23;20412;-91
2022/01/05 11:00:52;;;;;;;7.35;1.80;;;9.30;66.80;;;;;;6085742;23;20481;-92
2022/01/05 11:03:38;;;;;;;22.38;5.57;;;9.40;66.80;;;;;;6063648;23;20475;-92
2022/01/05 11:06:16;;;;;;;23.63;6.72;;;9.40;66.80;;;;;;6087896;23;20002;-89
2022/01/05 11:09:00;;;;;;;29.60;11.07;;;9.40;66.70;;;;;;6061666;23;20014;-91
2022/01/05 11:11:36;;;;;;;15.40;5.00;;;9.40;66.70;;;;;;6059853;23;20014;-95
2022/01/05 11:14:14;;;;;;;16.27;4.03;;;9.40;66.70;;;;;;6111647;23;20086;-94
2022/01/05 11:16:44;;;;;;;20.40;6.05;;;9.50;66.80;;;;;;6083223;23;20017;-94
2022/01/05 11:19:22;;;;;;;10.48;2.85;;;9.40;66.80;;;;;;6086566;23;20006;-94
2022/01/05 11:22:15;;;;;;;26.33;8.90;;;9.40;66.80;;;;;;6089430;23;20033;-94
2022/01/05 11:24:53;;;;;;;19.23;6.68;;;9.40;66.80;;;;;;6064252;23;20066;-92
2022/01/05 11:27:22;;;;;;;10.18;3.25;;;9.50;66.90;;;;;;6062248;23;20100;-93
2022/01/05 11:29:48;;;;;;;7.05;2.58;;;9.50;67.00;;;;;;6109318;23;20041;-93
2022/01/05 11:32:20;;;;;;;12.55;2.35;;;9.40;67.00;;;;;;6060207;23;20014;-93
2022/01/05 11:34:47;;;;;;;7.90;1.95;;;9.50;67.10;;;;;;6063612;23;20006;-93
2022/01/05 11:37:13;;;;;;;86.63;32.10;;;9.50;67.20;;;;;;6061060;23;20010;-92
2022/01/05 11:39:50;;;;;;;19.00;6.20;;;9.50;67.30;;;;;;6086823;23;20469;-91
2022/01/05 11:42:23;;;;;;;10.57;2.42;;;9.50;67.20;;;;;;6073797;23;20010;-92
2022/01/05 11:44:54;;;;;;;6.80;2.10;;;9.80;67.00;;;;;;6072030;23;20005;-92
2022/01/05 11:47:37;;;;;;;10.65;1.52;;;9.60;67.40;;;;;;6065694;23;20014;-94
2022/01/05 11:50:15;;;;;;;7.20;2.00;;;9.50;67.30;;;;;;6086547;23;20017;-95
2022/01/05 11:53:01;;;;;;;5.15;1.35;;;9.50;67.30;;;;;;6123082;23;20611;-94
2022/01/05 11:55:29;;;;;;;10.60;2.88;;;9.60;67.20;;;;;;6134942;23;20006;-95
2022/01/05 11:58:18;;;;;;;6.85;1.77;;;9.60;67.20;;;;;;6122567;23;20014;-94
2022/01/05 12:00:46;;;;;;;9.95;2.25;;;9.60;67.20;;;;;;6132952;23;20049;-95
2022/01/05 12:03:12;;;;;;;8.65;1.88;;;9.60;67.20;;;;;;6085104;23;20537;-93
2022/01/05 12:06:14;;;;;;;7.53;1.90;;;10.20;67.60;;;;;;6031817;23;20006;-90
2022/01/05 12:09:17;;;;;;;7.07;1.35;;;9.80;68.00;;;;;;5945036;23;20027;-92
2022/01/05 12:11:43;;;;;;;13.32;3.10;;;9.60;67.20;;;;;;6080474;23;20014;-94
2022/01/05 12:14:21;;;;;;;9.80;2.33;;;9.70;67.30;;;;;;6058421;23;20492;-91
2022/01/05 12:16:59;;;;;;;13.98;4.22;;;9.70;67.20;;;;;;6102600;23;20081;-92
2022/01/05 12:19:45;;;;;;;9.38;2.50;;;9.80;67.20;;;;;;6101911;23;20049;-91
2022/01/05 12:22:26;;;;;;;11.13;2.55;;;10.10;67.30;;;;;;6058079;23;20089;-91
2022/01/05 12:25:03;;;;;;;10.57;2.75;;;9.80;67.10;;;;;;6031725;23;20010;-90
2022/01/05 12:27:32;;;;;;;21.60;7.05;;;9.70;67.10;;;;;;6103169;23;20022;-90
2022/01/05 12:30:00;;;;;;;12.88;4.63;;;9.70;67.10;;;;;;6054543;23;20010;-94
2022/01/05 12:32:38;;;;;;;14.00;5.10;;;10.30;67.40;;;;;;6030568;23;20019;-91
2022/01/05 12:35:19;;;;;;;16.58;3.88;;;9.80;67.00;;;;;;6055523;23;20041;-92
2022/01/05 12:38:04;;;;;;;7.43;2.33;;;9.90;67.00;;;;;;6031281;23;20011;-91
2022/01/05 12:40:46;;;;;;;13.13;4.18;;;9.80;66.90;;;;;;6054786;23;20014;-91
2022/01/05 12:43:15;;;;;;;10.18;2.60;;;9.80;66.80;;;;;;6032241;23;20025;-90
2022/01/05 12:46:02;;;;;;;9.57;1.98;;;9.90;66.90;;;;;;6104635;23;20097;-89
2022/01/05 12:48:31;;;;;;;5.70;2.10;;;9.90;66.90;;;;;;6060175;23;20019;-91
2022/01/05 12:51:25;;;;;;;7.35;2.47;;;9.90;66.80;;;;;;6104430;23;20014;-93
2022/01/05 12:53:56;;;;;;;10.35;2.08;;;9.90;66.70;;;;;;6129135;23;20382;-90
2022/01/05 12:56:30;;;;;;;8.23;2.88;;;9.90;66.60;;;;;;6136290;23;20353;-92